Jj Sky — VRJA6 — position and weather

sailwx.info

Track history (hours):
 
Tides and Currents Weather Stations Pressure Air Temp Water Temp Dewpoint Dewpoint Depression Visibility Wind Speed Wind Dir Waves Ship Positions

Jj Sky

Last reported at 2016-Sep-27 00:32 UTC. Time now 2016-Sep-28 00:05 UTC.
Position N 34°55' E 139°24'.

Length 148 m; draft 7.2 m.

Type: Ship (hazmat cat D). MMSI: 477397500.

Date/timePositionNaut miles runAvg speedWind from/ knotsBaromVisibWave heightAir tempDewpointWater temp
2016-Sep-27 00:32N 34°55' E 139°24'36 9.0
2016-Sep-26 20:33N 35°27' E 139°41'0 0.0
2016-Sep-26 19:33N 35°27' E 139°41'3 0.9
2016-Sep-26 15:33N 35°27' E 139°46'10 4.7
2016-Sep-26 13:31N 35°36' E 139°47'0 0.0
2016-Sep-26 11:33N 35°36' E 139°47'0 0.0
2016-Sep-26 08:32N 35°36' E 139°47'0 0.0
2016-Sep-26 02:32N 35°36' E 139°47'0 0.0
2016-Sep-26 01:32N 35°36' E 139°47'1 1.3
2016-Sep-26 00:33N 35°35' E 139°48'3612.1
2016-Sep-25 21:33N 34°60' E 139°37'  
2016-Sep-23 06:29N 31°20' E 121°40'  
2016-Sep-20 17:31N 33°57' E 134°54'4214.3
2016-Sep-20 14:33N 34°36' E 135°16'4 3.8
2016-Sep-20 13:27N 34°39' E 135°14'0 0.0
2016-Sep-20 10:32N 34°39' E 135°14'10 4.4
2016-Sep-20 08:21N 34°31' E 135°19'0 0.0
2016-Sep-20 07:21N 34°31' E 135°19'0 0.1
2016-Sep-20 06:32N 34°31' E 135°19'0 0.0
2016-Sep-20 02:31N 34°31' E 135°19'0 0.0
2016-Sep-19 23:26N 34°31' E 135°19'0 0.0
2016-Sep-19 19:30N 34°31' E 135°19'0 0.0
2016-Sep-19 18:30N 34°31' E 135°19'0 0.0
2016-Sep-19 16:29N 34°31' E 135°19'0 0.0
2016-Sep-19 13:27N 34°31' E 135°19'0 0.0
2016-Sep-19 12:33N 34°31' E 135°19'0 0.0
2016-Sep-19 11:27N 34°31' E 135°19'0 0.1
2016-Sep-19 09:33N 34°31' E 135°19'9 3.8
2016-Sep-19 07:12N 34°39' E 135°24'0 0.0
2016-Sep-19 06:32N 34°39' E 135°24'0 0.0
2016-Sep-19 03:24N 34°39' E 135°24'0 0.0
2016-Sep-19 02:24N 34°39' E 135°24'0 0.0
2016-Sep-19 00:29N 34°39' E 135°24'4 0.8
2016-Sep-18 19:33N 34°36' E 135°21'0 0.0
2016-Sep-18 15:10N 34°36' E 135°21'0 0.0
2016-Sep-18 10:32N 34°36' E 135°21'0 0.0
2016-Sep-18 09:19N 34°36' E 135°21'  
Track history (hours):
 
Tides and Currents Weather Stations Pressure Air Temp Water Temp Dewpoint Dewpoint Depression Visibility Wind Speed Wind Dir Waves Ship Positions

Jj Sky

Last reported at 2016-Sep-27 00:32 UTC. Time now 2016-Sep-28 00:05 UTC.
Position N 34°55' E 139°24'.

Length 148 m; draft 7.2 m.

Type: Ship (hazmat cat D). MMSI: 477397500.

Date/timePositionNaut miles runAvg speedWind from/ knotsBaromVisibWave heightAir tempDewpointWater temp
2016-Sep-27 00:32N 34°55' E 139°24'36 9.0
2016-Sep-26 20:33N 35°27' E 139°41'0 0.0
2016-Sep-26 19:33N 35°27' E 139°41'3 0.9
2016-Sep-26 15:33N 35°27' E 139°46'10 4.7
2016-Sep-26 13:31N 35°36' E 139°47'0 0.0
2016-Sep-26 11:33N 35°36' E 139°47'0 0.0
2016-Sep-26 08:32N 35°36' E 139°47'0 0.0
2016-Sep-26 02:32N 35°36' E 139°47'0 0.0
2016-Sep-26 01:32N 35°36' E 139°47'1 1.3
2016-Sep-26 00:33N 35°35' E 139°48'3612.1
2016-Sep-25 21:33N 34°60' E 139°37'  
2016-Sep-23 06:29N 31°20' E 121°40'  
2016-Sep-20 17:31N 33°57' E 134°54'4214.3
2016-Sep-20 14:33N 34°36' E 135°16'4 3.8
2016-Sep-20 13:27N 34°39' E 135°14'0 0.0
2016-Sep-20 10:32N 34°39' E 135°14'10 4.4
2016-Sep-20 08:21N 34°31' E 135°19'0 0.0
2016-Sep-20 07:21N 34°31' E 135°19'0 0.1
2016-Sep-20 06:32N 34°31' E 135°19'0 0.0
2016-Sep-20 02:31N 34°31' E 135°19'0 0.0
2016-Sep-19 23:26N 34°31' E 135°19'0 0.0
2016-Sep-19 19:30N 34°31' E 135°19'0 0.0
2016-Sep-19 18:30N 34°31' E 135°19'0 0.0
2016-Sep-19 16:29N 34°31' E 135°19'0 0.0
2016-Sep-19 13:27N 34°31' E 135°19'0 0.0
2016-Sep-19 12:33N 34°31' E 135°19'0 0.0
2016-Sep-19 11:27N 34°31' E 135°19'0 0.1
2016-Sep-19 09:33N 34°31' E 135°19'9 3.8
2016-Sep-19 07:12N 34°39' E 135°24'0 0.0
2016-Sep-19 06:32N 34°39' E 135°24'0 0.0
2016-Sep-19 03:24N 34°39' E 135°24'0 0.0
2016-Sep-19 02:24N 34°39' E 135°24'0 0.0
2016-Sep-19 00:29N 34°39' E 135°24'4 0.8
2016-Sep-18 19:33N 34°36' E 135°21'0 0.0
2016-Sep-18 15:10N 34°36' E 135°21'0 0.0
2016-Sep-18 10:32N 34°36' E 135°21'0 0.0
2016-Sep-18 09:19N 34°36' E 135°21'  

Dump ship's entire track history